Archival Weather

Eureka

Eureka, Canada (CWEU)

Report from: Wednesday, January 25, 2023 1:00 PM CST
Current time: Friday, April 19, 2024 4:42 AM CDT

Current weather – Weather history – Daily summaries
Weather forecast

Present weatherIce crystals
Temperature-42.0°C (-43.6°F)
Wind chill-49.8°C (-57.7°F)
Dew point-46.0°C (-50.8°F)
Winds 3 kts (1.5 m/s, 3.5 mph) Vrb
Winds variableWinds variable from South-Southeast (150°) to Northwest (320°)
Visibility10 mi. (16.1 km)
Clouds Few clouds 13,000 ft. (3,962 m)
Altimeter29.93 in.Hg (1014 mB)
Relative humidity65 %
Density altitude-7,799 ft. (-2,377 m)
Sea-level pressure101.6 kPa (1016 mB, 30.00 in.Hg)
Remarks Visibility southeast
Flight conditions Visual Meteorological Conditions
Raw dataCWEU 251900Z 24003KT 150V320 10SM IC FEW130 M42/M46 A2993 RMK AC1 AC TR VIS LWR SE STN EXHAUST SLP158
An error has occurred. This application may no longer respond until reloaded. Reload 🗙